This is the latest recevied weather packets stored in our database for station/object K4JOZ. If no packets are shown the sender has not sent any weather packets the latest 10 day(s).
| Time | Temp. | Humidity | Pressure | Rain* | Wind** | Luminosity | Snow |
|---|---|---|---|---|---|---|---|
| 1777862269 | 6.67° C | 63% | 1015.4 hPa | 0 mm | - | - | - |
| 1777861369 | 6.67° C | 66% | 1015.2 hPa | 0 mm | - | - | - |
| 1777860469 | 7.22° C | 68% | 1015.2 hPa | 0 mm | - | - | - |
| 1777859569 | 8.33° C | 70% | 1015 hPa | 0 mm | - | - | - |
| 1777858669 | 8.89° C | 71% | 1014.9 hPa | 0 mm | - | - | - |
| 1777857769 | 9.44° C | 71% | 1014.9 hPa | 0 mm | - | - | - |
| 1777856869 | 10.56° C | 69% | 1015 hPa | 0 mm | - | - | - |
| 1777855969 | 12.22° C | 63% | 1015 hPa | 0 mm | - | - | - |
| 1777855069 | 13.89° C | 58% | 1014.7 hPa | 0 mm | - | - | - |
| 1777854169 | 15.56° C | 51% | 1014.4 hPa | 0 mm | - | - | - |
| 1777853269 | 16.67° C | 46% | 1014.4 hPa | 0 mm | - | - | - |
| 1777852369 | 17.22° C | 45% | 1014.6 hPa | 0 mm | - | - | - |
| 1777851469 | 17.22° C | 42% | 1014.6 hPa | 0 mm | - | - | - |
| 1777850569 | 17.78° C | 42% | 1014.7 hPa | 0 mm | - | - | - |
| 1777849669 | 17.78° C | 42% | 1015 hPa | 0 mm | - | - | - |
| 1777848769 | 17.22° C | 41% | 1015 hPa | 0 mm | - | - | - |
| 1777847869 | 17.78° C | 38% | 1015.2 hPa | 0 mm | - | - | - |
| 1777846969 | 17.78° C | 38% | 1015.3 hPa | 0 mm | - | - | - |
| 1777846069 | 17.78° C | 39% | 1015.3 hPa | 0 mm | - | - | - |
| 1777845169 | 17.22° C | 39% | 1015.5 hPa | 0 mm | - | - | - |
| 1777844269 | 17.22° C | 40% | 1015.6 hPa | 0 mm | - | - | - |
| 1777843369 | 17.22° C | 40% | 1015.8 hPa | 0 mm | - | - | - |
| 1777842469 | 17.22° C | 43% | 1016 hPa | 0 mm | - | - | - |
| 1777841569 | 17.78° C | 41% | 1015.9 hPa | 0 mm | - | - | - |
| 1777840669 | 17.22° C | 39% | 1016.3 hPa | 0 mm | - | - | - |
* Rain latest hour (hover to see other rain measurements)
** Current wind speed in m/s (hover to see current wind gust speed)